Dades meteomassalio
Diari Summary for Abril 17, 2018 Units:  English    Metric   Both
« Previous Day
Next Day »
Diari Semanal Mensual Anual Personalitzat
  Maxima: Minima: Mijana:
Temperatura: TemperatureC °F 4.4 °F 13.2 °F
Rosada: DewpointC °F 3.4 °F 7.6 °F
Humitat: Humidity % 41 % 72 %
Velocitat del vent: WindSpeedKMH mph 0.0 mph 2.4 mph
Racha vent: WindSpeedGustKMH mph - -
Vent:- - South
Pressio: PressurehPa in 1023.6 in -
Pluja: 0.3 in    
Historical Graphs
 
 
Tabular Data for Abril 17, 2018
Time Temperature Dew Point Pressure Wind Wind Speed Wind Gust Humidity Rainfall Rate (Hourly) solar Conditions
TemperatureC °F DewpointC °F PressurehPa in Calm     Humidity % HourlyPrecipMM in SolarRadiationWatts/m^2 W/m2 Conditions
00:01 8.9 °F 6.7 °F 1023.6 in Calm     86 % 0.0 in 0.0 W/m2 RA
00:06 8.3 °F 6.1 °F 1023.6 in Calm     86 % 0.0 in 0.0 W/m2 CLR
00:11 8.3 °F 6.1 °F 1023.9 in Calm     86 % 0.0 in 0.0 W/m2 CLR
00:16 8.3 °F 6.3 °F 1023.9 in Calm     87 % 0.0 in 0.0 W/m2 CLR
00:21 7.8 °F 5.9 °F 1023.9 in Calm     88 % 0.0 in 0.0 W/m2 CLR
00:26 7.8 °F 5.9 °F 1023.9 in Calm     88 % 0.0 in 0.0 W/m2 CLR
00:31 7.8 °F 5.9 °F 1023.9 in Calm     88 % 0.0 in 0.0 W/m2 CLR
00:36 7.8 °F 6.1 °F 1024.3 in Calm     89 % 0.0 in 0.0 W/m2 CLR
00:41 7.8 °F 6.1 °F 1024.3 in Calm     89 % 0.0 in 0.0 W/m2 CLR
00:46 7.8 °F 6.1 °F 1024.3 in Calm     89 % 0.0 in 0.0 W/m2 CLR
00:51 8.3 °F 6.8 °F 1024.3 in Calm     90 % 0.0 in 0.0 W/m2 CLR
00:56 8.9 °F 7.2 °F 1024.3 in Calm     89 % 0.0 in 0.0 W/m2 CLR
01:01 8.3 °F 6.8 °F 1024.3 in Calm     90 % 0.0 in 0.0 W/m2 CLR
01:06 8.3 °F 6.8 °F 1024.3 in Calm     90 % 0.0 in 0.0 W/m2 CLR
01:11 7.8 °F 6.2 °F 1024.3 in Calm     90 % 0.0 in 0.0 W/m2 CLR
01:16 7.8 °F 6.2 °F 1024.6 in Calm     90 % 0.0 in 0.0 W/m2 CLR
01:21 7.2 °F 5.7 °F 1024.6 in Calm     90 % 0.0 in 0.0 W/m2 CLR
01:26 7.2 °F 5.7 °F 1024.6 in Calm     90 % 0.0 in 0.0 W/m2 CLR
01:31 7.2 °F 5.8 °F 1024.6 in Calm     91 % 0.0 in 0.0 W/m2 CLR
01:36 7.2 °F 5.8 °F 1024.6 in Calm     91 % 0.0 in 0.0 W/m2 CLR
01:41 7.2 °F 5.8 °F 1024.6 in Calm     91 % 0.0 in 0.0 W/m2 CLR
01:46 7.2 °F 5.8 °F 1024.6 in Calm     91 % 0.0 in 0.0 W/m2 CLR
01:51 6.7 °F 5.3 °F 1024.6 in Calm     91 % 0.0 in 0.0 W/m2 CLR
01:56 6.7 °F 5.3 °F 1024.9 in Calm     91 % 0.0 in 0.0 W/m2 CLR
02:01 6.7 °F 5.3 °F 1024.9 in Calm     91 % 0.0 in 0.0 W/m2 CLR
02:06 6.7 °F 5.3 °F 1024.9 in Calm     91 % 0.0 in 0.0 W/m2 CLR
02:11 6.7 °F 5.3 °F 1024.9 in Calm     91 % 0.0 in 0.0 W/m2 CLR
02:16 6.7 °F 5.3 °F 1024.9 in Calm     91 % 0.0 in 0.0 W/m2 CLR
02:21 6.7 °F 5.3 °F 1024.9 in Calm     91 % 0.0 in 0.0 W/m2 CLR
02:26 6.7 °F 5.3 °F 1024.9 in Calm     91 % 0.0 in 0.0 W/m2 CLR
02:31 6.7 °F 5.3 °F 1024.9 in Calm     91 % 0.0 in 0.0 W/m2 CLR
02:36 6.1 °F 4.8 °F 1024.9 in Calm     91 % 0.0 in 0.0 W/m2 CLR
02:41 6.7 °F 5.3 °F 1024.9 in Calm     91 % 0.0 in 0.0 W/m2 CLR
02:46 6.7 °F 5.3 °F 1024.6 in Calm     91 % 0.0 in 0.0 W/m2 CLR
02:51 6.1 °F 4.8 °F 1024.6 in Calm     91 % 0.0 in 0.0 W/m2 CLR
02:56 6.7 °F 5.3 °F 1024.6 in Calm     91 % 0.0 in 0.0 W/m2 CLR
03:01 6.1 °F 4.9 °F 1024.6 in Calm     92 % 0.0 in 0.0 W/m2 CLR
03:06 6.1 °F 4.9 °F 1024.6 in Calm     92 % 0.0 in 0.0 W/m2 CLR
03:11 6.1 °F 4.9 °F 1024.9 in Calm     92 % 0.0 in 0.0 W/m2 CLR
03:16 6.1 °F 4.9 °F 1024.9 in Calm     92 % 0.0 in 0.0 W/m2 CLR
03:21 6.7 °F 5.4 °F 1024.9 in Calm     92 % 0.0 in 0.0 W/m2 CLR
03:26 6.1 °F 4.9 °F 1024.9 in Calm     92 % 0.0 in 0.0 W/m2 CLR
03:31 6.1 °F 4.9 °F 1024.9 in Calm     92 % 0.0 in 0.0 W/m2 CLR
03:36 6.1 °F 4.9 °F 1024.9 in Calm     92 % 0.0 in 0.0 W/m2 CLR
03:41 6.1 °F 4.9 °F 1024.9 in Calm     92 % 0.0 in 0.0 W/m2 CLR
03:46 6.1 °F 4.9 °F 1024.9 in Calm     92 % 0.0 in 0.0 W/m2 CLR
03:47 6.1 °F 4.9 °F 1024.9 in Calm     92 % 0.0 in 0.0 W/m2 CLR
03:52 6.1 °F 4.9 °F 1024.9 in Calm     92 % 0.0 in 0.0 W/m2 CLR
03:57 6.1 °F 4.9 °F 1025.3 in Calm     92 % 0.0 in 0.0 W/m2 CLR
04:02 6.1 °F 4.9 °F 1025.3 in Calm     92 % 0.0 in 0.0 W/m2 CLR
04:07 6.1 °F 4.9 °F 1025.3 in Calm     92 % 0.0 in 0.0 W/m2 CLR
04:12 6.1 °F 4.9 °F 1025.3 in Calm     92 % 0.0 in 0.0 W/m2 CLR
04:17 6.1 °F 4.9 °F 1025.3 in Calm     92 % 0.0 in 0.0 W/m2 CLR
04:22 6.1 °F 4.9 °F 1025.3 in Calm     92 % 0.0 in 0.0 W/m2 CLR
04:27 5.6 °F 4.3 °F 1025.3 in Calm     92 % 0.0 in 0.0 W/m2 CLR
04:32 5.6 °F 4.3 °F 1025.3 in Calm     92 % 0.0 in 0.0 W/m2 CLR
04:37 5.6 °F 4.3 °F 1025.6 in Calm     92 % 0.0 in 0.0 W/m2 CLR
04:42 5.6 °F 4.3 °F 1025.6 in Calm     92 % 0.0 in 0.0 W/m2 CLR
04:47 5.6 °F 4.3 °F 1025.6 in Calm     92 % 0.0 in 0.0 W/m2 CLR
04:52 5.6 °F 4.3 °F 1025.6 in Calm     92 % 0.0 in 0.0 W/m2 CLR
04:57 5.6 °F 4.3 °F 1025.6 in Calm     92 % 0.0 in 0.0 W/m2 CLR
05:02 5.6 °F 4.3 °F 1025.6 in Calm     92 % 0.0 in 0.0 W/m2 CLR
05:07 5.6 °F 4.3 °F 1025.6 in Calm     92 % 0.0 in 0.0 W/m2 CLR
05:12 5.6 °F 4.3 °F 1025.6 in Calm     92 % 0.0 in 0.0 W/m2 CLR
05:17 5.6 °F 4.3 °F 1025.3 in Calm     92 % 0.0 in 0.0 W/m2 CLR
05:22 6.1 °F 4.9 °F 1025.3 in Calm     92 % 0.0 in 0.0 W/m2 CLR
05:27 5.6 °F 4.3 °F 1025.3 in Calm     92 % 0.0 in 0.0 W/m2 CLR
05:32 5.6 °F 4.3 °F 1025.6 in Calm     92 % 0.0 in 0.0 W/m2 CLR
05:37 5.6 °F 4.3 °F 1025.6 in Calm     92 % 0.0 in 0.0 W/m2 CLR
05:43 5.0 °F 3.8 °F 1025.6 in Calm     92 % 0.0 in 0.0 W/m2 CLR
05:48 5.6 °F 4.3 °F 1025.6 in Calm     92 % 0.0 in 0.0 W/m2 CLR
05:53 5.6 °F 4.3 °F 1025.6 in Calm     92 % 0.0 in 0.0 W/m2 CLR
05:58 5.0 °F 3.9 °F 1025.6 in Calm     93 % 0.0 in 0.0 W/m2 CLR
06:03 5.0 °F 3.9 °F 1025.3 in Calm     93 % 0.0 in 0.0 W/m2 CLR
06:08 5.0 °F 3.8 °F 1025.3 in Calm     92 % 0.0 in 0.0 W/m2 CLR
06:13 5.0 °F 3.8 °F 1025.3 in Calm     92 % 0.0 in 0.0 W/m2 CLR
06:18 5.0 °F 3.8 °F 1025.3 in Calm     92 % 0.0 in 0.0 W/m2 CLR
06:23 5.0 °F 3.9 °F 1025.3 in Calm     93 % 0.0 in 0.0 W/m2 CLR
06:28 5.0 °F 3.9 °F 1025.3 in Calm     93 % 0.0 in 0.0 W/m2 CLR
06:33 5.0 °F 3.9 °F 1025.3 in Calm     93 % 0.0 in 0.0 W/m2 CLR
06:38 5.0 °F 3.8 °F 1025.3 in Calm     92 % 0.0 in 0.0 W/m2 CLR
06:43 5.0 °F 3.8 °F 1025.6 in Calm     92 % 0.0 in 0.0 W/m2 CLR
06:48 5.0 °F 3.8 °F 1025.6 in Calm     92 % 0.0 in 0.0 W/m2 CLR
06:53 5.0 °F 3.9 °F 1025.6 in Calm     93 % 0.0 in 0.0 W/m2 CLR
06:58 5.0 °F 3.9 °F 1025.6 in Calm     93 % 0.0 in 0.0 W/m2 CLR
07:03 5.0 °F 3.9 °F 1025.6 in Calm     93 % 0.0 in 0.0 W/m2 CLR
07:08 5.0 °F 3.9 °F 1025.6 in Calm     93 % 0.0 in 0.0 W/m2 OVC
07:13 5.0 °F 3.9 °F 1026.0 in Calm     93 % 0.0 in 0.0 W/m2 OVC
07:18 5.0 °F 3.9 °F 1026.0 in Calm     93 % 0.3 in 5.0 W/m2 RA
07:23 5.0 °F 3.9 °F 1026.0 in Calm     93 % 0.3 in 7.0 W/m2 BKN
07:28 5.0 °F 3.8 °F 1026.0 in Calm     92 % 0.3 in 11.0 W/m2 BKN
07:33 5.0 °F 3.9 °F 1026.0 in Calm     93 % 0.3 in 12.0 W/m2 BKN
07:38 5.0 °F 3.9 °F 1026.0 in Calm     93 % 0.3 in 14.0 W/m2 BKN
07:43 4.4 °F 3.4 °F 1026.3 in Calm     93 % 0.3 in 18.0 W/m2 BKN
07:48 4.4 °F 3.4 °F 1026.3 in Calm     93 % 0.3 in 23.0 W/m2 BKN
07:53 4.4 °F 3.4 °F 1026.3 in Calm     93 % 0.3 in 30.0 W/m2 BKN
07:58 5.0 °F 3.9 °F 1026.3 in Calm     93 % 0.3 in 28.0 W/m2 BKN
08:03 5.0 °F 3.9 °F 1026.3 in Calm     93 % 0.3 in 37.0 W/m2 BKN
08:08 5.0 °F 3.9 °F 1026.3 in Calm     93 % 0.3 in 65.0 W/m2 SCT
08:13 5.0 °F 3.9 °F 1026.6 in Calm     93 % 0.3 in 67.0 W/m2 FEW
08:18 5.6 °F 4.5 °F 1026.6 in Calm     93 % 0.0 in 95.0 W/m2 FEW
08:23 6.1 °F 5.1 °F 1026.6 in Calm     93 % 0.0 in 105.0 W/m2 CLR
08:28 6.1 °F 5.1 °F 1026.6 in Calm     93 % 0.0 in 90.0 W/m2 CLR
08:33 6.7 °F 5.6 °F 1026.6 in Calm     93 % 0.0 in 98.0 W/m2 CLR
08:38 6.7 °F 5.6 °F 1027.0 in Calm     93 % 0.0 in 121.0 W/m2 CLR
08:43 6.7 °F 5.6 °F 1027.0 in Calm     93 % 0.0 in 155.0 W/m2 CLR
08:48 7.2 °F 6.0 °F 1027.0 in Calm     92 % 0.0 in 195.0 W/m2 CLR
08:53 7.8 °F 6.6 °F 1027.0 in Calm     92 % 0.0 in 214.0 W/m2 CLR
08:58 8.3 °F 7.1 °F 1027.0 in Calm     92 % 0.0 in 195.0 W/m2 CLR
09:03 8.3 °F 7.1 °F 1027.0 in Calm     92 % 0.0 in 62.0 W/m2 CLR
09:08 8.9 °F 7.5 °F 1027.0 in Calm     91 % 0.0 in 209.0 W/m2 CLR
09:13 9.4 °F 7.9 °F 1027.0 in Calm     90 % 0.0 in 274.0 W/m2 CLR
09:18 10.0 °F 8.3 °F 1027.0 in Calm     89 % 0.0 in 302.0 W/m2 CLR
09:23 10.6 °F 8.7 °F 1027.0 in Calm     88 % 0.0 in 322.0 W/m2 CLR
09:28 11.7 °F 9.6 °F 1027.0 in Calm     87 % 0.0 in 336.0 W/m2 CLR
09:33 12.2 °F 10.1 °F 1027.0 in Calm     87 % 0.0 in 366.0 W/m2 CLR
09:38 12.8 °F 10.7 °F 1027.0 in Calm     87 % 0.0 in 387.0 W/m2 CLR
09:43 13.3 °F 11.2 °F 1027.0 in Calm     87 % 0.0 in 394.0 W/m2 CLR
09:48 13.3 °F 10.9 °F 1027.3 in Calm     85 % 0.0 in 424.0 W/m2 CLR
09:53 13.9 °F 11.2 °F 1027.3 in Calm     84 % 0.0 in 446.0 W/m2 CLR
09:58 13.9 °F 11.2 °F 1027.3 in Calm     84 % 0.0 in 461.0 W/m2 CLR
10:03 14.4 °F 11.6 °F 1027.0 in Calm     83 % 0.0 in 478.0 W/m2 CLR
10:08 15.0 °F 11.4 °F 1027.3 in Calm     79 % 0.0 in 487.0 W/m2 CLR
10:13 15.0 °F 11.0 °F 1027.3 in Calm     77 % 0.0 in 490.0 W/m2 CLR
10:18 15.0 °F 11.2 °F 1027.3 in Calm     78 % 0.0 in 520.0 W/m2 CLR
10:23 15.0 °F 10.8 °F 1027.3 in Calm     76 % 0.0 in 534.0 W/m2 CLR
10:28 15.0 °F 10.6 °F 1027.3 in Calm     75 % 0.0 in 548.0 W/m2 CLR
10:33 15.6 °F 9.9 °F 1027.3 in West 5.6 mph 5.6 mph 69 % 0.0 in 563.0 W/m2 CLR
10:38 15.6 °F 9.7 °F 1027.3 in NW 8.0 mph 8.0 mph 68 % 0.0 in 577.0 W/m2 CLR
10:43 16.1 °F 9.1 °F 1027.3 in NW 9.7 mph 9.7 mph 63 % 0.0 in 592.0 W/m2 CLR
10:48 16.7 °F 10.1 °F 1027.3 in West 13.0 mph 13.0 mph 65 % 0.0 in 605.0 W/m2 CLR
10:53 17.2 °F 10.6 °F 1027.3 in NW 18.5 mph 18.5 mph 65 % 0.0 in 619.0 W/m2 CLR
10:58 17.8 °F 11.3 °F 1027.3 in WNW 9.7 mph 9.7 mph 66 % 0.0 in 619.0 W/m2 CLR
11:03 17.2 °F 10.1 °F 1027.3 in NNW 9.3 mph 9.3 mph 63 % 0.0 in 645.0 W/m2 CLR
11:08 17.8 °F 10.9 °F 1027.3 in WNW 14.8 mph 14.8 mph 64 % 0.0 in 659.0 W/m2 CLR
11:13 17.8 °F 9.9 °F 1027.0 in WNW 9.3 mph 9.3 mph 60 % 0.0 in 671.0 W/m2 CLR
11:18 17.8 °F 10.4 °F 1027.3 in WNW 9.3 mph 9.3 mph 62 % 0.0 in 682.0 W/m2 CLR
11:54 17.8 °F 9.9 °F 1027.0 in WNW 6.4 mph 6.4 mph 60 % 0.0 in 737.0 W/m2 CLR
11:59 17.8 °F 9.2 °F 1027.0 in WSW 12.9 mph 12.9 mph 57 % 0.0 in 765.0 W/m2 CLR
12:04 18.9 °F 10.2 °F 1027.0 in NNW 14.8 mph 14.8 mph 57 % 0.0 in 782.0 W/m2 CLR
12:09 18.9 °F 10.7 °F 1027.0 in NW 14.8 mph 14.8 mph 59 % 0.0 in 791.0 W/m2 CLR
12:14 19.4 °F 10.4 °F 1027.0 in North 9.3 mph 9.3 mph 56 % 0.0 in 802.0 W/m2 CLR
12:19 19.4 °F 10.9 °F 1027.0 in NNW 7.4 mph 7.4 mph 58 % 0.0 in 810.0 W/m2 CLR
12:24 19.4 °F 10.4 °F 1027.0 in NNW 4.8 mph 4.8 mph 56 % 0.0 in 817.0 W/m2 CLR
12:29 19.4 °F 11.2 °F 1027.0 in NNW 5.6 mph 5.6 mph 59 % 0.0 in 824.0 W/m2 CLR
12:34 19.4 °F 10.2 °F 1027.0 in West 9.3 mph 9.3 mph 55 % 0.0 in 833.0 W/m2 CLR
12:39 19.4 °F 9.9 °F 1027.0 in NNW 5.6 mph 5.6 mph 54 % 0.0 in 840.0 W/m2 CLR
12:44 19.4 °F 10.4 °F 1027.0 in North 9.3 mph 9.3 mph 56 % 0.0 in 846.0 W/m2 CLR
12:49 20.0 °F 11.5 °F 1027.0 in North 5.6 mph 5.6 mph 58 % 0.0 in 851.0 W/m2 CLR
12:54 19.4 °F 10.2 °F 1026.6 in North 13.0 mph 13.0 mph 55 % 0.0 in 858.0 W/m2 CLR
12:59 20.0 °F 10.9 °F 1026.6 in North 14.8 mph 14.8 mph 56 % 0.0 in 861.0 W/m2 CLR
13:05 20.0 °F 10.9 °F 1026.6 in NNW 13.0 mph   56 % 0.0 in 865.0 W/m2 CLR
13:10 19.4 °F 10.7 °F 1026.6 in NNW 14.8 mph 14.8 mph 57 % 0.0 in 870.0 W/m2 CLR
13:15 20.0 °F 11.2 °F 1026.6 in NW 9.3 mph 9.3 mph 57 % 0.0 in 877.0 W/m2 CLR
13:25 20.6 °F 10.9 °F 1026.3 in WNW 14.5 mph 14.5 mph 54 % 0.0 in 886.0 W/m2 CLR
13:30 20.6 °F 10.7 °F 1026.3 in NW 11.1 mph 11.1 mph 53 % 0.0 in 889.0 W/m2 CLR
13:35 20.6 °F 10.9 °F 1026.3 in North 9.3 mph 9.3 mph 54 % 0.0 in 891.0 W/m2 CLR
13:40 20.6 °F 9.8 °F 1026.3 in Calm     50 % 0.0 in 891.0 W/m2 CLR
13:45 20.6 °F 10.3 °F 1026.3 in Calm     52 % 0.0 in 893.0 W/m2 CLR
13:50 20.6 °F 10.9 °F 1026.3 in North 9.3 mph 9.3 mph 54 % 0.0 in 898.0 W/m2 CLR
13:55 21.1 °F 11.7 °F 1026.3 in Calm   0.2 mph 55 % 0.0 in 898.0 W/m2 CLR
14:00 21.1 °F 12.0 °F 1026.0 in NNE 9.3 mph 9.3 mph 56 % 0.0 in 898.0 W/m2 CLR
14:05 21.1 °F 10.0 °F 1026.0 in Calm     49 % 0.0 in 900.0 W/m2 CLR
14:10 21.7 °F 11.4 °F 1026.0 in NNE 9.7 mph 9.7 mph 52 % 0.0 in 898.0 W/m2 CLR
14:15 21.7 °F 10.5 °F 1026.0 in NE 5.6 mph   49 % 0.0 in 900.0 W/m2 CLR
14:20 21.1 °F 9.3 °F 1026.0 in Calm     47 % 0.0 in 896.0 W/m2 CLR
14:25 21.1 °F 8.7 °F 1026.0 in NW 11.1 mph 11.1 mph 45 % 0.0 in 896.0 W/m2 CLR
14:30 21.7 °F 8.6 °F 1026.0 in WNW 9.3 mph 9.3 mph 43 % 0.0 in 891.0 W/m2 CLR
14:35 21.7 °F 10.5 °F 1026.0 in North 4.8 mph 4.8 mph 49 % 0.0 in 888.0 W/m2 CLR
14:40 21.7 °F 10.2 °F 1026.0 in WNW 5.6 mph   48 % 0.0 in 888.0 W/m2 CLR
14:45 21.7 °F 9.2 °F 1026.0 in NNE 5.6 mph 5.6 mph 45 % 0.0 in 882.0 W/m2 CLR
14:50 21.7 °F 9.2 °F 1026.0 in Calm     45 % 0.0 in 879.0 W/m2 CLR
14:55 21.1 °F 10.0 °F 1026.0 in NE 5.6 mph 5.6 mph 49 % 0.0 in 875.0 W/m2 CLR
15:00 21.7 °F 11.7 °F 1025.6 in WNW 5.6 mph 5.6 mph 53 % 0.0 in 872.0 W/m2 CLR
15:05 21.7 °F 11.1 °F 1025.6 in ENE 1.9 mph   51 % 0.0 in 868.0 W/m2 CLR
15:10 21.7 °F 10.5 °F 1025.6 in ENE 9.3 mph 9.3 mph 49 % 0.0 in 860.0 W/m2 CLR
15:15 21.7 °F 10.5 °F 1025.6 in Calm   0.2 mph 49 % 0.0 in 853.0 W/m2 CLR
15:20 21.7 °F 10.2 °F 1025.6 in North 3.7 mph 3.7 mph 48 % 0.0 in 851.0 W/m2 CLR
15:25 21.7 °F 10.5 °F 1025.3 in North 11.1 mph 11.1 mph 49 % 0.0 in 842.0 W/m2 CLR
15:35 22.8 °F 10.6 °F 1025.3 in NNW 11.1 mph 11.1 mph 46 % 0.0 in 826.0 W/m2 CLR
15:40 22.2 °F 12.4 °F 1025.3 in NNW 13.0 mph 13.0 mph 54 % 0.0 in 819.0 W/m2 CLR
15:45 22.2 °F 10.7 °F 1025.3 in NW 11.1 mph 11.1 mph 48 % 0.0 in 810.0 W/m2 CLR
15:50 22.2 °F 11.6 °F 1025.3 in NNE 13.0 mph 13.0 mph 51 % 0.0 in 802.0 W/m2 CLR
15:55 22.2 °F 10.1 °F 1025.3 in NNE 6.4 mph 6.4 mph 46 % 0.0 in 793.0 W/m2 CLR
16:00 22.2 °F 10.1 °F 1024.9 in ENE 4.8 mph 4.8 mph 46 % 0.0 in 782.0 W/m2 CLR
16:05 22.8 °F 10.9 °F 1024.9 in Calm     47 % 0.0 in 775.0 W/m2 CLR
16:10 22.8 °F 12.1 °F 1024.9 in NW 1.6 mph 1.6 mph 51 % 0.0 in 759.0 W/m2 CLR
16:15 22.8 °F 11.2 °F 1024.9 in NE 11.1 mph 11.1 mph 48 % 0.0 in 756.0 W/m2 CLR
16:20 22.2 °F 10.4 °F 1024.9 in Calm     47 % 0.0 in 749.0 W/m2 CLR
16:25 22.2 °F 10.7 °F 1024.9 in ENE 7.4 mph 7.4 mph 48 % 0.0 in 733.0 W/m2 CLR
16:30 22.2 °F 11.0 °F 1024.9 in NNE 3.2 mph 3.2 mph 49 % 0.0 in 724.0 W/m2 CLR
16:35 22.2 °F 11.0 °F 1024.9 in NE 9.3 mph 9.3 mph 49 % 0.0 in 708.0 W/m2 CLR
16:40 22.2 °F 10.7 °F 1024.6 in NE 3.7 mph 3.7 mph 48 % 0.0 in 686.0 W/m2 CLR
16:45 22.8 °F 10.9 °F 1024.6 in NE 18.5 mph 18.5 mph 47 % 0.0 in 684.0 W/m2 CLR
16:51 22.2 °F 10.4 °F 1024.6 in NE 5.6 mph 5.6 mph 47 % 0.0 in 670.0 W/m2 CLR
16:56 22.2 °F 11.0 °F 1024.6 in NE 4.8 mph 4.8 mph 49 % 0.0 in 659.0 W/m2 CLR
17:01 22.2 °F 10.7 °F 1024.6 in Calm   0.8 mph 48 % 0.0 in 647.0 W/m2 CLR
17:06 22.2 °F 11.9 °F 1024.6 in Calm   0.6 mph 52 % 0.0 in 631.0 W/m2 CLR
17:11 22.2 °F 10.7 °F 1024.6 in North 9.3 mph 9.3 mph 48 % 0.0 in 615.0 W/m2 CLR
17:16 22.8 °F 11.8 °F 1024.6 in NE 11.1 mph 11.1 mph 50 % 0.0 in 603.0 W/m2 CLR
17:21 22.2 °F 11.6 °F 1024.6 in North 3.7 mph   51 % 0.0 in 589.0 W/m2 CLR
17:26 22.2 °F 11.9 °F 1024.6 in NNW 1.9 mph   52 % 0.0 in 573.0 W/m2 CLR
17:31 22.2 °F 11.0 °F 1024.6 in North 3.7 mph 3.7 mph 49 % 0.0 in 559.0 W/m2 CLR
17:36 22.2 °F 10.4 °F 1024.6 in NNE 9.3 mph 9.3 mph 47 % 0.0 in 543.0 W/m2 CLR
17:41 22.2 °F 10.4 °F 1024.6 in NNW 3.7 mph 3.7 mph 47 % 0.0 in 529.0 W/m2 CLR
17:46 22.2 °F 10.4 °F 1024.6 in NE 1.9 mph   47 % 0.0 in 512.0 W/m2 CLR
17:51 22.2 °F 11.0 °F 1024.6 in NE 5.6 mph 5.6 mph 49 % 0.0 in 497.0 W/m2 CLR
17:56 22.2 °F 11.0 °F 1024.6 in ENE 5.6 mph 5.6 mph 49 % 0.0 in 482.0 W/m2 CLR
18:01 22.2 °F 10.4 °F 1024.6 in NE 7.4 mph 7.4 mph 47 % 0.0 in 468.0 W/m2 CLR
18:06 22.2 °F 11.0 °F 1024.6 in East 5.6 mph 5.6 mph 49 % 0.0 in 454.0 W/m2 CLR
18:11 22.2 °F 11.0 °F 1024.6 in NE 5.6 mph 5.6 mph 49 % 0.0 in 432.0 W/m2 CLR
18:16 22.2 °F 10.7 °F 1024.6 in NE 1.9 mph   48 % 0.0 in 418.0 W/m2 CLR
18:21 22.2 °F 10.4 °F 1024.6 in NE 5.6 mph 5.6 mph 47 % 0.0 in 401.0 W/m2 CLR
18:26 21.7 °F 10.8 °F 1024.6 in NNE 1.9 mph 1.9 mph 50 % 0.0 in 387.0 W/m2 CLR
18:31 21.7 °F 10.2 °F 1024.6 in East 3.2 mph 3.2 mph 48 % 0.0 in 366.0 W/m2 CLR
18:36 21.7 °F 10.2 °F 1024.6 in Calm     48 % 0.0 in 350.0 W/m2 CLR
18:41 21.7 °F 9.8 °F 1024.6 in Calm     47 % 0.0 in 336.0 W/m2 CLR
18:46 21.7 °F 9.8 °F 1024.6 in NNE 9.3 mph 9.3 mph 47 % 0.0 in 322.0 W/m2 CLR
18:51 21.7 °F 9.8 °F 1024.9 in NNE 3.7 mph   47 % 0.0 in 306.0 W/m2 CLR
18:56 21.7 °F 9.2 °F 1024.9 in NNE 5.6 mph 5.6 mph 45 % 0.0 in 285.0 W/m2 CLR
19:01 21.7 °F 9.8 °F 1024.9 in Calm     47 % 0.0 in 269.0 W/m2 CLR
19:06 21.7 °F 9.2 °F 1024.9 in Calm     45 % 0.0 in 246.0 W/m2 CLR
19:11 21.7 °F 9.6 °F 1024.9 in Calm     46 % 0.0 in 232.0 W/m2 CLR
19:16 21.1 °F 8.4 °F 1024.9 in Calm     44 % 0.0 in 206.0 W/m2 CLR
19:21 21.1 °F 8.7 °F 1024.9 in Calm     45 % 0.0 in 188.0 W/m2 CLR
19:26 21.1 °F 8.4 °F 1024.9 in Calm     44 % 0.0 in 171.0 W/m2 CLR
19:31 20.6 °F 7.6 °F 1024.9 in Calm     43 % 0.0 in 153.0 W/m2 CLR
19:36 20.6 °F 6.8 °F 1024.9 in Calm     41 % 0.0 in 135.0 W/m2 CLR
19:41 20.6 °F 7.6 °F 1024.9 in Calm     43 % 0.0 in 116.0 W/m2 OVC
19:46 20.6 °F 7.9 °F 1024.9 in Calm     44 % 0.0 in 98.0 W/m2 OVC
19:51 20.6 °F 7.6 °F 1024.9 in Calm     43 % 0.0 in 81.0 W/m2 OVC
19:56 20.0 °F 7.4 °F 1024.9 in Calm     44 % 0.0 in 60.0 W/m2 OVC
20:01 19.4 °F 7.2 °F 1024.9 in Calm     45 % 0.0 in 53.0 W/m2 OVC
20:06 18.9 °F 6.4 °F 1024.9 in Calm     44 % 0.0 in 42.0 W/m2 OVC
20:11 17.8 °F 5.7 °F 1024.9 in Calm     45 % 0.0 in 30.0 W/m2 OVC
20:16 17.2 °F 5.8 °F 1024.9 in Calm     47 % 0.0 in 21.0 W/m2 OVC
20:21 16.7 °F 5.6 °F 1024.9 in Calm     48 % 0.0 in 16.0 W/m2 OVC
20:26 16.7 °F 5.6 °F 1024.9 in Calm     48 % 0.0 in 12.0 W/m2 OVC
20:31 16.1 °F 4.8 °F 1024.9 in Calm     47 % 0.0 in 9.0 W/m2 OVC
20:36 15.6 °F 4.3 °F 1025.3 in Calm     47 % 0.0 in 5.0 W/m2 OVC
20:41 15.6 °F 4.6 °F 1025.3 in Calm     48 % 0.0 in 0.0 W/m2 OVC
20:46 15.6 °F 5.7 °F 1025.3 in Calm     52 % 0.0 in 0.0 W/m2 OVC
20:51 15.0 °F 4.9 °F 1025.3 in Calm     51 % 0.0 in 0.0 W/m2 OVC
20:56 15.0 °F 5.5 °F 1025.3 in Calm     53 % 0.0 in 0.0 W/m2 CLR
21:01 14.4 °F 5.5 °F 1025.3 in Calm     55 % 0.0 in 0.0 W/m2 CLR
21:06 14.4 °F 6.8 °F 1025.3 in Calm     60 % 0.0 in 0.0 W/m2 CLR
21:11 13.9 °F 7.2 °F 1025.6 in Calm     64 % 0.0 in 0.0 W/m2 CLR
21:16 13.9 °F 7.4 °F 1025.6 in Calm     65 % 0.0 in 0.0 W/m2 CLR
21:21 13.9 °F 7.2 °F 1025.6 in Calm     64 % 0.0 in 0.0 W/m2 CLR
21:26 13.3 °F 7.3 °F 1026.0 in Calm     67 % 0.0 in 0.0 W/m2 CLR
21:31 13.3 °F 8.0 °F 1026.0 in Calm     70 % 0.0 in 0.0 W/m2 CLR
21:36 12.8 °F 8.1 °F 1026.0 in Calm     73 % 0.0 in 0.0 W/m2 CLR
21:41 12.8 °F 8.3 °F 1026.0 in Calm     74 % 0.0 in 0.0 W/m2 CLR
21:46 12.2 °F 7.9 °F 1026.0 in Calm     75 % 0.0 in 0.0 W/m2 CLR
21:51 12.2 °F 8.1 °F 1026.3 in Calm     76 % 0.0 in 0.0 W/m2 CLR
21:56 11.7 °F 7.6 °F 1026.3 in WNW 5.6 mph 5.6 mph 76 % 0.0 in 0.0 W/m2 CLR
22:01 11.7 °F 7.8 °F 1026.3 in Calm     77 % 0.0 in 0.0 W/m2 CLR
22:06 11.1 °F 7.2 °F 1026.3 in Calm     77 % 0.0 in 0.0 W/m2 CLR
22:11 11.1 °F 7.4 °F 1026.3 in Calm     78 % 0.0 in 0.0 W/m2 CLR
22:16 11.1 °F 7.4 °F 1026.6 in Calm     78 % 0.0 in 0.0 W/m2 CLR
22:21 11.1 °F 7.6 °F 1026.6 in SW 5.6 mph 5.6 mph 79 % 0.0 in 0.0 W/m2 CLR
22:26 10.6 °F 7.2 °F 1026.6 in Calm     80 % 0.0 in 0.0 W/m2 CLR
22:31 10.6 °F 7.2 °F 1026.6 in Calm     80 % 0.0 in 0.0 W/m2 CLR
22:36 10.6 °F 7.4 °F 1026.6 in Calm     81 % 0.0 in 0.0 W/m2 CLR
22:41 10.0 °F 6.9 °F 1026.6 in Calm     81 % 0.0 in 0.0 W/m2 CLR
22:46 10.0 °F 7.1 °F 1026.6 in West 6.4 mph 6.4 mph 82 % 0.0 in 0.0 W/m2 CLR
22:51 10.0 °F 7.1 °F 1026.6 in Calm     82 % 0.0 in 0.0 W/m2 CLR
22:56 10.6 °F 7.8 °F 1027.0 in Calm     83 % 0.0 in 0.0 W/m2 CLR
23:01 10.0 °F 7.2 °F 1027.0 in Calm     83 % 0.0 in 0.0 W/m2 CLR
23:06 10.0 °F 7.2 °F 1026.6 in Calm     83 % 0.0 in 0.0 W/m2 CLR
23:11 10.0 °F 7.4 °F 1027.0 in Calm     84 % 0.0 in 0.0 W/m2 CLR
23:16 9.4 °F 6.9 °F 1027.0 in Calm     84 % 0.0 in 0.0 W/m2 CLR
23:21 9.4 °F 6.9 °F 1027.0 in Calm     84 % 0.0 in 0.0 W/m2 CLR
23:26 9.4 °F 6.9 °F 1027.0 in Calm     84 % 0.0 in 0.0 W/m2 CLR
23:31 8.9 °F 6.5 °F 1027.0 in SW 5.6 mph 5.6 mph 85 % 0.0 in 0.0 W/m2 CLR
23:36 8.9 °F 6.5 °F 1027.0 in Calm     85 % 0.0 in 0.0 W/m2 CLR
23:41 9.4 °F 7.1 °F 1027.0 in Calm     85 % 0.0 in 0.0 W/m2 CLR
23:46 9.4 °F 7.2 °F 1027.0 in Calm     86 % 0.0 in 0.0 W/m2 CLR
23:51 9.4 °F 7.2 °F 1027.0 in SW 6.4 mph 6.4 mph 86 % 0.0 in 0.0 W/m2 CLR
23:56 9.4 °F 7.2 °F 1027.0 in Calm     86 % 0.0 in 0.0 W/m2 CLR
Lo Temps de Massalio
Compliments of Weather Underground - 1.25 mb